sensor_id;sensor_type;location;lat;lon;timestamp;temperature;humidity
21121;DHT22;12519;43.318;21.898;2023-01-01T00:03:32;9.6;91.0
21121;DHT22;12519;43.318;21.898;2023-01-01T00:08:08;9.8;91.0
21121;DHT22;12519;43.318;21.898;2023-01-01T00:12:44;9.8;91.0
21121;DHT22;12519;43.318;21.898;2023-01-01T00:17:21;9.5;91.0
21121;DHT22;12519;43.318;21.898;2023-01-01T00:21:57;9.5;91.0
21121;DHT22;12519;43.318;21.898;2023-01-01T00:26:33;9.2;92.0
21121;DHT22;12519;43.318;21.898;2023-01-01T00:31:18;9.2;92.0
21121;DHT22;12519;43.318;21.898;2023-01-01T00:35:57;9.1;92.0
21121;DHT22;12519;43.318;21.898;2023-01-01T00:40:42;9.1;92.0
21121;DHT22;12519;43.318;21.898;2023-01-01T00:45:19;9.0;92.0
21121;DHT22;12519;43.318;21.898;2023-01-01T00:49:56;9.0;92.0
21121;DHT22;12519;43.318;21.898;2023-01-01T00:54:32;9.0;92.0
21121;DHT22;12519;43.318;21.898;2023-01-01T00:59:08;9.0;92.0
21121;DHT22;12519;43.318;21.898;2023-01-01T01:03:45;9.0;92.0
21121;DHT22;12519;43.318;21.898;2023-01-01T01:08:21;9.0;92.0
21121;DHT22;12519;43.318;21.898;2023-01-01T01:12:57;9.0;92.0
21121;DHT22;12519;43.318;21.898;2023-01-01T01:17:35;9.0;92.0
21121;DHT22;12519;43.318;21.898;2023-01-01T01:22:12;9.0;92.0
21121;DHT22;12519;43.318;21.898;2023-01-01T01:26:48;9.0;92.0
21121;DHT22;12519;43.318;21.898;2023-01-01T01:31:31;9.0;92.0
21121;DHT22;12519;43.318;21.898;2023-01-01T01:36:11;9.0;92.0
21121;DHT22;12519;43.318;21.898;2023-01-01T01:40:51;9.0;92.0
21121;DHT22;12519;43.318;21.898;2023-01-01T02:00:01;8.7;93.0
21121;DHT22;12519;43.318;21.898;2023-01-01T02:04:41;8.7;93.0
21121;DHT22;12519;43.318;21.898;2023-01-01T02:09:20;8.7;93.0
21121;DHT22;12519;43.318;21.898;2023-01-01T02:14:03;8.7;93.0
21121;DHT22;12519;43.318;21.898;2023-01-01T02:19:24;8.6;93.0
21121;DHT22;12519;43.318;21.898;2023-01-01T02:24:58;8.6;93.0
21121;DHT22;12519;43.318;21.898;2023-01-01T02:29:54;8.4;93.0
21121;DHT22;12519;43.318;21.898;2023-01-01T02:34:49;8.4;93.0
21121;DHT22;12519;43.318;21.898;2023-01-01T02:39:43;8.2;94.0
21121;DHT22;12519;43.318;21.898;2023-01-01T02:44:34;8.2;94.0
21121;DHT22;12519;43.318;21.898;2023-01-01T02:49:11;7.9;94.0
21121;DHT22;12519;43.318;21.898;2023-01-01T02:54:17;7.9;94.0
21121;DHT22;12519;43.318;21.898;2023-01-01T02:59:40;7.8;95.0
21121;DHT22;12519;43.318;21.898;2023-01-01T03:05:17;7.8;95.0
21121;DHT22;12519;43.318;21.898;2023-01-01T03:10:21;7.6;96.0
21121;DHT22;12519;43.318;21.898;2023-01-01T03:15:39;7.7;96.0
21121;DHT22;12519;43.318;21.898;2023-01-01T03:20:38;7.7;96.0
21121;DHT22;12519;43.318;21.898;2023-01-01T03:25:32;7.8;96.0
21121;DHT22;12519;43.318;21.898;2023-01-01T03:30:20;7.8;96.0
21121;DHT22;12519;43.318;21.898;2023-01-01T03:34:58;7.8;96.0
21121;DHT22;12519;43.318;21.898;2023-01-01T03:39:47;7.6;97.0
21121;DHT22;12519;43.318;21.898;2023-01-01T03:44:45;7.6;97.0
21121;DHT22;12519;43.318;21.898;2023-01-01T03:49:30;7.4;98.0
21121;DHT22;12519;43.318;21.898;2023-01-01T03:54:30;7.4;98.0
21121;DHT22;12519;43.318;21.898;2023-01-01T03:59:31;7.5;97.0
21121;DHT22;12519;43.318;21.898;2023-01-01T04:04:17;7.5;97.0
21121;DHT22;12519;43.318;21.898;2023-01-01T04:09:03;7.6;97.0
21121;DHT22;12519;43.318;21.898;2023-01-01T04:13:48;7.6;97.0
21121;DHT22;12519;43.318;21.898;2023-01-01T04:18:24;7.6;97.0
21121;DHT22;12519;43.318;21.898;2023-01-01T04:23:02;7.6;97.0
21121;DHT22;12519;43.318;21.898;2023-01-01T04:27:40;7.7;96.0
21121;DHT22;12519;43.318;21.898;2023-01-01T04:32:17;7.7;96.0
21121;DHT22;12519;43.318;21.898;2023-01-01T04:36:53;8.4;98.0
21121;DHT22;12519;43.318;21.898;2023-01-01T04:41:32;8.4;98.0
21121;DHT22;12519;43.318;21.898;2023-01-01T04:46:09;9.2;99.0
21121;DHT22;12519;43.318;21.898;2023-01-01T04:50:56;9.2;99.0
21121;DHT22;12519;43.318;21.898;2023-01-01T04:55:39;9.2;99.0
21121;DHT22;12519;43.318;21.898;2023-01-01T05:00:17;11.9;96.0
21121;DHT22;12519;43.318;21.898;2023-01-01T05:04:54;11.9;96.0
21121;DHT22;12519;43.318;21.898;2023-01-01T05:09:30;14.6;94.0
21121;DHT22;12519;43.318;21.898;2023-01-01T05:14:07;14.6;94.0
21121;DHT22;12519;43.318;21.898;2023-01-01T05:18:45;15.4;88.0
21121;DHT22;12519;43.318;21.898;2023-01-01T05:23:22;15.4;88.0
21121;DHT22;12519;43.318;21.898;2023-01-01T05:27:59;16.3;83.0
21121;DHT22;12519;43.318;21.898;2023-01-01T05:32:36;16.3;83.0
21121;DHT22;12519;43.318;21.898;2023-01-01T05:37:12;16.8;80.0
21121;DHT22;12519;43.318;21.898;2023-01-01T05:41:48;16.8;80.0
21121;DHT22;12519;43.318;21.898;2023-01-01T05:46:24;17.3;78.0
21121;DHT22;12519;43.318;21.898;2023-01-01T05:51:03;17.3;78.0
21121;DHT22;12519;43.318;21.898;2023-01-01T05:55:52;16.8;76.0
21121;DHT22;12519;43.318;21.898;2023-01-01T06:00:28;16.8;76.0
21121;DHT22;12519;43.318;21.898;2023-01-01T06:05:06;16.8;76.0
21121;DHT22;12519;43.318;21.898;2023-01-01T06:09:44;16.4;74.0
21121;DHT22;12519;43.318;21.898;2023-01-01T06:14:20;16.4;74.0
21121;DHT22;12519;43.318;21.898;2023-01-01T06:18:57;15.9;74.0
21121;DHT22;12519;43.318;21.898;2023-01-01T06:23:35;15.9;74.0
21121;DHT22;12519;43.318;21.898;2023-01-01T06:28:12;15.4;74.0
21121;DHT22;12519;43.318;21.898;2023-01-01T06:32:48;15.4;74.0
21121;DHT22;12519;43.318;21.898;2023-01-01T06:37:27;12.8;77.0
21121;DHT22;12519;43.318;21.898;2023-01-01T06:42:03;12.8;77.0
21121;DHT22;12519;43.318;21.898;2023-01-01T06:46:40;10.1;80.0
21121;DHT22;12519;43.318;21.898;2023-01-01T06:51:20;10.1;80.0
21121;DHT22;12519;43.318;21.898;2023-01-01T06:56:00;9.5;84.0
21121;DHT22;12519;43.318;21.898;2023-01-01T07:00:39;9.5;84.0
21121;DHT22;12519;43.318;21.898;2023-01-01T07:05:15;9.5;84.0
21121;DHT22;12519;43.318;21.898;2023-01-01T07:09:52;8.9;87.0
21121;DHT22;12519;43.318;21.898;2023-01-01T07:14:28;8.9;87.0
21121;DHT22;12519;43.318;21.898;2023-01-01T07:19:05;9.2;87.0
21121;DHT22;12519;43.318;21.898;2023-01-01T07:23:42;9.2;87.0
21121;DHT22;12519;43.318;21.898;2023-01-01T07:28:21;9.4;86.0
21121;DHT22;12519;43.318;21.898;2023-01-01T07:33:02;9.4;86.0
21121;DHT22;12519;43.318;21.898;2023-01-01T07:37:39;10.0;86.0
21121;DHT22;12519;43.318;21.898;2023-01-01T07:42:16;10.0;86.0
21121;DHT22;12519;43.318;21.898;2023-01-01T07:47:01;10.7;86.0
21121;DHT22;12519;43.318;21.898;2023-01-01T07:51:38;10.7;86.0
21121;DHT22;12519;43.318;21.898;2023-01-01T07:56:15;10.4;86.0
21121;DHT22;12519;43.318;21.898;2023-01-01T08:00:52;10.4;86.0
21121;DHT22;12519;43.318;21.898;2023-01-01T08:05:29;10.4;86.0
21121;DHT22;12519;43.318;21.898;2023-01-01T08:10:08;10.0;86.0
21121;DHT22;12519;43.318;21.898;2023-01-01T08:14:45;10.0;86.0
21121;DHT22;12519;43.318;21.898;2023-01-01T08:19:21;9.8;88.0
21121;DHT22;12519;43.318;21.898;2023-01-01T08:23:58;9.8;88.0
21121;DHT22;12519;43.318;21.898;2023-01-01T08:28:34;9.5;90.0
21121;DHT22;12519;43.318;21.898;2023-01-01T08:33:11;9.5;90.0
21121;DHT22;12519;43.318;21.898;2023-01-01T08:37:48;9.8;90.0
21121;DHT22;12519;43.318;21.898;2023-01-01T08:42:25;9.8;90.0
21121;DHT22;12519;43.318;21.898;2023-01-01T08:47:01;10.1;90.0
21121;DHT22;12519;43.318;21.898;2023-01-01T08:51:38;10.1;90.0
21121;DHT22;12519;43.318;21.898;2023-01-01T08:56:15;10.6;89.0
21121;DHT22;12519;43.318;21.898;2023-01-01T09:00:52;10.6;89.0
21121;DHT22;12519;43.318;21.898;2023-01-01T09:05:30;10.6;89.0
21121;DHT22;12519;43.318;21.898;2023-01-01T09:10:08;11.1;88.0
21121;DHT22;12519;43.318;21.898;2023-01-01T09:14:46;11.1;88.0
21121;DHT22;12519;43.318;21.898;2023-01-01T09:19:23;11.6;86.0
21121;DHT22;12519;43.318;21.898;2023-01-01T09:23:59;11.6;86.0
21121;DHT22;12519;43.318;21.898;2023-01-01T09:28:37;12.1;85.0
21121;DHT22;12519;43.318;21.898;2023-01-01T09:33:13;12.1;85.0
21121;DHT22;12519;43.318;21.898;2023-01-01T09:37:50;12.2;85.0
21121;DHT22;12519;43.318;21.898;2023-01-01T09:42:39;12.2;85.0
21121;DHT22;12519;43.318;21.898;2023-01-01T09:47:46;12.3;84.0
21121;DHT22;12519;43.318;21.898;2023-01-01T09:52:47;12.3;84.0
21121;DHT22;12519;43.318;21.898;2023-01-01T09:57:35;12.2;85.0
21121;DHT22;12519;43.318;21.898;2023-01-01T10:02:38;12.2;85.0
21121;DHT22;12519;43.318;21.898;2023-01-01T10:08:30;12.1;86.0
21121;DHT22;12519;43.318;21.898;2023-01-01T10:13:45;12.1;86.0
21121;DHT22;12519;43.318;21.898;2023-01-01T10:18:29;12.3;86.0
21121;DHT22;12519;43.318;21.898;2023-01-01T10:23:23;12.3;86.0
21121;DHT22;12519;43.318;21.898;2023-01-01T10:28:30;12.5;86.0
21121;DHT22;12519;43.318;21.898;2023-01-01T10:33:25;12.5;86.0
21121;DHT22;12519;43.318;21.898;2023-01-01T10:38:03;12.6;85.0
21121;DHT22;12519;43.318;21.898;2023-01-01T10:42:40;12.6;85.0
21121;DHT22;12519;43.318;21.898;2023-01-01T10:47:26;12.7;85.0
21121;DHT22;12519;43.318;21.898;2023-01-01T10:52:14;12.7;85.0
21121;DHT22;12519;43.318;21.898;2023-01-01T10:56:51;12.8;85.0
21121;DHT22;12519;43.318;21.898;2023-01-01T11:01:31;12.8;85.0
21121;DHT22;12519;43.318;21.898;2023-01-01T11:06:20;12.8;85.0
21121;DHT22;12519;43.318;21.898;2023-01-01T11:11:25;12.9;85.0
21121;DHT22;12519;43.318;21.898;2023-01-01T11:16:17;12.9;85.0
21121;DHT22;12519;43.318;21.898;2023-01-01T11:20:58;13.0;85.0
21121;DHT22;12519;43.318;21.898;2023-01-01T11:25:35;13.0;85.0
21121;DHT22;12519;43.318;21.898;2023-01-01T11:30:25;13.2;84.0
21121;DHT22;12519;43.318;21.898;2023-01-01T11:35:17;13.2;84.0
21121;DHT22;12519;43.318;21.898;2023-01-01T11:40:15;13.4;84.0
21121;DHT22;12519;43.318;21.898;2023-01-01T11:45:17;13.4;84.0
21121;DHT22;12519;43.318;21.898;2023-01-01T11:50:18;13.6;85.0
21121;DHT22;12519;43.318;21.898;2023-01-01T11:55:19;13.6;85.0
21121;DHT22;12519;43.318;21.898;2023-01-01T12:00:15;13.8;84.0
21121;DHT22;12519;43.318;21.898;2023-01-01T12:05:08;13.8;84.0
21121;DHT22;12519;43.318;21.898;2023-01-01T12:10:08;14.0;84.0
21121;DHT22;12519;43.318;21.898;2023-01-01T12:15:05;14.0;84.0
21121;DHT22;12519;43.318;21.898;2023-01-01T12:20:16;14.0;83.0
21121;DHT22;12519;43.318;21.898;2023-01-01T12:25:14;14.0;83.0
21121;DHT22;12519;43.318;21.898;2023-01-01T12:30:10;14.1;83.0
21121;DHT22;12519;43.318;21.898;2023-01-01T12:35:20;14.1;83.0
21121;DHT22;12519;43.318;21.898;2023-01-01T12:41:12;14.2;83.0
21121;DHT22;12519;43.318;21.898;2023-01-01T12:46:45;14.2;83.0
21121;DHT22;12519;43.318;21.898;2023-01-01T12:52:16;14.4;82.0
21121;DHT22;12519;43.318;21.898;2023-01-01T12:57:48;14.8;83.0
21121;DHT22;12519;43.318;21.898;2023-01-01T13:02:56;14.8;83.0
21121;DHT22;12519;43.318;21.898;2023-01-01T13:08:02;15.3;83.0
21121;DHT22;12519;43.318;21.898;2023-01-01T13:12:41;15.3;83.0
21121;DHT22;12519;43.318;21.898;2023-01-01T13:17:23;15.3;82.0
21121;DHT22;12519;43.318;21.898;2023-01-01T13:22:38;15.3;82.0
21121;DHT22;12519;43.318;21.898;2023-01-01T13:28:04;15.3;82.0
21121;DHT22;12519;43.318;21.898;2023-01-01T13:33:17;15.3;82.0
21121;DHT22;12519;43.318;21.898;2023-01-01T13:37:59;15.3;81.0
21121;DHT22;12519;43.318;21.898;2023-01-01T13:42:41;15.3;81.0
21121;DHT22;12519;43.318;21.898;2023-01-01T13:48:05;15.3;81.0
21121;DHT22;12519;43.318;21.898;2023-01-01T13:53:55;15.3;81.0
21121;DHT22;12519;43.318;21.898;2023-01-01T13:59:57;15.4;81.0
21121;DHT22;12519;43.318;21.898;2023-01-01T14:05:01;15.4;81.0
21121;DHT22;12519;43.318;21.898;2023-01-01T14:10:23;15.4;81.0
21121;DHT22;12519;43.318;21.898;2023-01-01T14:15:15;15.4;81.0
21121;DHT22;12519;43.318;21.898;2023-01-01T14:20:14;15.2;81.0
21121;DHT22;12519;43.318;21.898;2023-01-01T14:25:15;15.2;81.0
21121;DHT22;12519;43.318;21.898;2023-01-01T14:30:14;15.1;81.0
21121;DHT22;12519;43.318;21.898;2023-01-01T14:35:01;15.1;81.0
21121;DHT22;12519;43.318;21.898;2023-01-01T14:39:38;14.9;82.0
21121;DHT22;12519;43.318;21.898;2023-01-01T14:44:20;14.9;82.0
21121;DHT22;12519;43.318;21.898;2023-01-01T14:49:14;14.7;82.0
21121;DHT22;12519;43.318;21.898;2023-01-01T14:54:03;14.7;82.0
21121;DHT22;12519;43.318;21.898;2023-01-01T14:58:40;14.5;83.0
21121;DHT22;12519;43.318;21.898;2023-01-01T15:03:20;14.5;83.0
21121;DHT22;12519;43.318;21.898;2023-01-01T15:08:02;14.3;83.0
21121;DHT22;12519;43.318;21.898;2023-01-01T15:12:57;14.3;83.0
21121;DHT22;12519;43.318;21.898;2023-01-01T15:17:45;14.0;84.0
21121;DHT22;12519;43.318;21.898;2023-01-01T15:22:28;14.0;84.0
21121;DHT22;12519;43.318;21.898;2023-01-01T15:27:24;13.8;86.0
21121;DHT22;12519;43.318;21.898;2023-01-01T15:32:14;13.8;86.0
21121;DHT22;12519;43.318;21.898;2023-01-01T15:37:16;13.6;86.0
21121;DHT22;12519;43.318;21.898;2023-01-01T15:42:30;13.6;86.0
21121;DHT22;12519;43.318;21.898;2023-01-01T15:47:17;13.3;87.0
21121;DHT22;12519;43.318;21.898;2023-01-01T15:51:59;13.3;87.0
21121;DHT22;12519;43.318;21.898;2023-01-01T15:56:41;13.3;87.0
21121;DHT22;12519;43.318;21.898;2023-01-01T16:01:22;13.0;88.0
21121;DHT22;12519;43.318;21.898;2023-01-01T16:06:05;13.0;88.0
21121;DHT22;12519;43.318;21.898;2023-01-01T16:10:51;12.6;90.0
21121;DHT22;12519;43.318;21.898;2023-01-01T16:15:28;12.6;90.0
21121;DHT22;12519;43.318;21.898;2023-01-01T16:20:06;12.6;90.0
21121;DHT22;12519;43.318;21.898;2023-01-01T16:24:52;12.6;90.0
21121;DHT22;12519;43.318;21.898;2023-01-01T16:29:28;12.7;90.0
21121;DHT22;12519;43.318;21.898;2023-01-01T16:34:05;12.7;90.0
21121;DHT22;12519;43.318;21.898;2023-01-01T16:38:48;12.6;90.0
21121;DHT22;12519;43.318;21.898;2023-01-01T16:43:24;12.6;90.0
21121;DHT22;12519;43.318;21.898;2023-01-01T16:48:01;12.4;90.0
21121;DHT22;12519;43.318;21.898;2023-01-01T16:52:37;12.4;90.0
21121;DHT22;12519;43.318;21.898;2023-01-01T16:57:14;12.4;90.0
21121;DHT22;12519;43.318;21.898;2023-01-01T17:01:50;12.2;90.0
21121;DHT22;12519;43.318;21.898;2023-01-01T17:06:27;12.2;90.0
21121;DHT22;12519;43.318;21.898;2023-01-01T17:11:10;12.0;91.0
21121;DHT22;12519;43.318;21.898;2023-01-01T17:15:54;12.0;91.0
21121;DHT22;12519;43.318;21.898;2023-01-01T17:20:33;12.1;90.0
21121;DHT22;12519;43.318;21.898;2023-01-01T17:25:09;12.1;90.0
21121;DHT22;12519;43.318;21.898;2023-01-01T17:29:46;12.2;89.0
21121;DHT22;12519;43.318;21.898;2023-01-01T17:34:22;12.2;89.0
21121;DHT22;12519;43.318;21.898;2023-01-01T17:38:59;12.0;89.0
21121;DHT22;12519;43.318;21.898;2023-01-01T17:43:38;12.0;89.0
21121;DHT22;12519;43.318;21.898;2023-01-01T17:48:21;11.9;89.0
21121;DHT22;12519;43.318;21.898;2023-01-01T17:52:57;11.9;89.0
21121;DHT22;12519;43.318;21.898;2023-01-01T17:57:34;13.2;91.0
21121;DHT22;12519;43.318;21.898;2023-01-01T18:02:11;13.2;91.0
21121;DHT22;12519;43.318;21.898;2023-01-01T18:06:50;13.2;91.0
21121;DHT22;12519;43.318;21.898;2023-01-01T18:11:28;14.5;92.0
21121;DHT22;12519;43.318;21.898;2023-01-01T18:16:09;14.5;92.0
21121;DHT22;12519;43.318;21.898;2023-01-01T18:20:47;13.8;88.0
21121;DHT22;12519;43.318;21.898;2023-01-01T18:25:23;13.8;88.0
21121;DHT22;12519;43.318;21.898;2023-01-01T18:30:00;13.1;85.0
21121;DHT22;12519;43.318;21.898;2023-01-01T18:34:37;13.1;85.0
21121;DHT22;12519;43.318;21.898;2023-01-01T18:39:16;12.4;86.0
21121;DHT22;12519;43.318;21.898;2023-01-01T18:44:06;12.4;86.0
21121;DHT22;12519;43.318;21.898;2023-01-01T18:48:58;11.8;88.0
21121;DHT22;12519;43.318;21.898;2023-01-01T18:53:36;11.8;88.0
21121;DHT22;12519;43.318;21.898;2023-01-01T18:58:16;11.6;89.0
21121;DHT22;12519;43.318;21.898;2023-01-01T19:03:00;11.6;89.0
21121;DHT22;12519;43.318;21.898;2023-01-01T19:07:58;11.4;89.0
21121;DHT22;12519;43.318;21.898;2023-01-01T19:12:53;11.4;89.0
21121;DHT22;12519;43.318;21.898;2023-01-01T19:17:30;11.4;89.0
21121;DHT22;12519;43.318;21.898;2023-01-01T19:22:15;11.4;89.0
21121;DHT22;12519;43.318;21.898;2023-01-01T19:27:12;11.4;89.0
21121;DHT22;12519;43.318;21.898;2023-01-01T19:31:57;11.3;89.0
21121;DHT22;12519;43.318;21.898;2023-01-01T19:36:33;11.3;89.0
21121;DHT22;12519;43.318;21.898;2023-01-01T19:41:10;11.0;89.0
21121;DHT22;12519;43.318;21.898;2023-01-01T19:45:47;11.0;89.0
21121;DHT22;12519;43.318;21.898;2023-01-01T19:50:23;10.7;90.0
21121;DHT22;12519;43.318;21.898;2023-01-01T19:55:00;10.7;90.0
21121;DHT22;12519;43.318;21.898;2023-01-01T19:59:36;10.2;92.0
21121;DHT22;12519;43.318;21.898;2023-01-01T20:04:13;10.2;92.0
21121;DHT22;12519;43.318;21.898;2023-01-01T20:08:49;9.7;93.0
21121;DHT22;12519;43.318;21.898;2023-01-01T20:13:26;9.7;93.0
21121;DHT22;12519;43.318;21.898;2023-01-01T20:18:02;9.8;94.0
21121;DHT22;12519;43.318;21.898;2023-01-01T20:22:38;9.8;94.0
21121;DHT22;12519;43.318;21.898;2023-01-01T20:27:16;9.8;94.0
21121;DHT22;12519;43.318;21.898;2023-01-01T20:31:53;9.9;94.0
21121;DHT22;12519;43.318;21.898;2023-01-01T20:36:30;9.9;94.0
21121;DHT22;12519;43.318;21.898;2023-01-01T20:41:07;9.9;93.0
21121;DHT22;12519;43.318;21.898;2023-01-01T20:45:43;9.9;93.0
21121;DHT22;12519;43.318;21.898;2023-01-01T20:50:20;9.9;93.0
21121;DHT22;12519;43.318;21.898;2023-01-01T20:54:56;9.9;93.0
21121;DHT22;12519;43.318;21.898;2023-01-01T20:59:33;10.2;95.0
21121;DHT22;12519;43.318;21.898;2023-01-01T21:04:09;10.2;95.0
21121;DHT22;12519;43.318;21.898;2023-01-01T21:08:46;10.4;96.0
21121;DHT22;12519;43.318;21.898;2023-01-01T21:13:23;10.4;96.0
21121;DHT22;12519;43.318;21.898;2023-01-01T21:18:02;10.7;97.0
21121;DHT22;12519;43.318;21.898;2023-01-01T21:22:40;10.7;97.0
21121;DHT22;12519;43.318;21.898;2023-01-01T21:27:19;10.7;97.0
21121;DHT22;12519;43.318;21.898;2023-01-01T21:32:15;11.0;97.0
21121;DHT22;12519;43.318;21.898;2023-01-01T21:37:10;11.0;97.0
21121;DHT22;12519;43.318;21.898;2023-01-01T21:42:13;10.4;98.0
21121;DHT22;12519;43.318;21.898;2023-01-01T21:47:00;10.4;98.0
21121;DHT22;12519;43.318;21.898;2023-01-01T21:51:57;9.7;100.0
21121;DHT22;12519;43.318;21.898;2023-01-01T21:56:52;9.7;100.0
21121;DHT22;12519;43.318;21.898;2023-01-01T22:01:48;9.8;100.0
21121;DHT22;12519;43.318;21.898;2023-01-01T22:06:33;9.8;100.0
21121;DHT22;12519;43.318;21.898;2023-01-01T22:11:25;9.9;100.0
21121;DHT22;12519;43.318;21.898;2023-01-01T22:16:06;9.9;100.0
21121;DHT22;12519;43.318;21.898;2023-01-01T22:20:50;10.2;100.0
21121;DHT22;12519;43.318;21.898;2023-01-01T22:25:30;10.2;100.0
21121;DHT22;12519;43.318;21.898;2023-01-01T22:30:35;10.4;100.0
21121;DHT22;12519;43.318;21.898;2023-01-01T22:35:20;10.4;100.0
21121;DHT22;12519;43.318;21.898;2023-01-01T22:40:17;10.5;100.0
21121;DHT22;12519;43.318;21.898;2023-01-01T22:45:13;10.5;100.0
21121;DHT22;12519;43.318;21.898;2023-01-01T22:49:51;10.6;99.0
21121;DHT22;12519;43.318;21.898;2023-01-01T22:54:27;10.6;99.0
21121;DHT22;12519;43.318;21.898;2023-01-01T22:59:04;10.0;100.0
21121;DHT22;12519;43.318;21.898;2023-01-01T23:03:40;10.0;100.0
21121;DHT22;12519;43.318;21.898;2023-01-01T23:08:17;9.3;100.0
21121;DHT22;12519;43.318;21.898;2023-01-01T23:12:55;9.3;100.0
21121;DHT22;12519;43.318;21.898;2023-01-01T23:17:32;9.3;100.0
21121;DHT22;12519;43.318;21.898;2023-01-01T23:22:09;9.2;100.0
21121;DHT22;12519;43.318;21.898;2023-01-01T23:26:46;9.2;100.0
21121;DHT22;12519;43.318;21.898;2023-01-01T23:31:27;9.1;100.0
21121;DHT22;12519;43.318;21.898;2023-01-01T23:36:08;9.1;100.0
21121;DHT22;12519;43.318;21.898;2023-01-01T23:40:46;8.8;100.0
21121;DHT22;12519;43.318;21.898;2023-01-01T23:45:23;8.8;100.0
21121;DHT22;12519;43.318;21.898;2023-01-01T23:50:01;8.6;100.0
21121;DHT22;12519;43.318;21.898;2023-01-01T23:54:39;8.6;100.0
21121;DHT22;12519;43.318;21.898;2023-01-01T23:59:15;8.8;100.0
